Time;durP1;ratioP1;P1;durP2;ratioP2;P2;SDS_P1;SDS_P2;PMS_P1;PMS_P2;Temp;Humidity;BMP_temperature;BMP_pressure;BME280_temperature;BME280_humidity;BME280_pressure;Samples;Min_cycle;Max_cycle;Signal;HPM_P1;HPM_P2
2021/11/09 00:03:23;;;;;;;22.90;12.68;;;;;;;4.10;100.00;102383.00;10549146;28;20048;-73
2021/11/09 00:08:29;;;;;;;21.88;12.27;;;;;;;4.07;100.00;102380.22;10581345;28;20075;-73
2021/11/09 00:13:30;;;;;;;23.13;12.38;;;;;;;3.93;100.00;102383.56;10568717;28;20138;-73
2021/11/09 00:18:32;;;;;;;26.52;12.57;;;;;;;3.94;100.00;102370.84;10557461;28;20055;-73
2021/11/09 00:23:34;;;;;;;18.48;11.68;;;;;;;4.07;100.00;102387.03;10556594;28;20121;-73
2021/11/09 00:28:35;;;;;;;22.50;12.13;;;;;;;3.93;100.00;102386.13;10543434;28;20056;-73
2021/11/09 00:33:38;;;;;;;29.30;12.57;;;;;;;3.88;100.00;102397.72;10541965;28;20087;-72
2021/11/09 00:38:40;;;;;;;18.50;9.98;;;;;;;3.69;100.00;102401.63;10543630;28;20050;-72
2021/11/09 00:43:42;;;;;;;19.40;7.75;;;;;;;3.55;100.00;102404.88;10543464;28;20475;-72
2021/11/09 00:48:44;;;;;;;11.35;6.82;;;;;;;3.56;100.00;102400.66;10552127;28;20075;-72
2021/11/09 00:53:45;;;;;;;12.13;8.05;;;;;;;3.44;100.00;102398.16;10573061;28;20126;-72
2021/11/09 00:58:47;;;;;;;16.80;7.63;;;;;;;3.46;100.00;102396.59;10541353;28;20151;-72
2021/11/09 01:03:49;;;;;;;12.38;7.15;;;;;;;3.32;100.00;102392.19;10577620;28;20134;-72
2021/11/09 01:08:51;;;;;;;9.98;7.32;;;;;;;3.32;100.00;102387.06;10566527;28;20718;-72
2021/11/09 01:13:53;;;;;;;21.77;9.65;;;;;;;3.30;100.00;102384.44;10545669;28;20544;-72
2021/11/09 01:18:57;;;;;;;15.30;9.15;;;;;;;3.25;100.00;102395.13;10541948;28;20091;-75
2021/11/09 01:23:59;;;;;;;17.95;10.52;;;;;;;3.23;100.00;102397.53;10546670;28;20127;-74
2021/11/09 01:29:05;;;;;;;18.40;9.73;;;;;;;3.23;100.00;102401.78;10561828;28;20127;-74
2021/11/09 01:34:08;;;;;;;15.07;10.40;;;;;;;3.18;100.00;102404.91;10541130;28;20131;-74
2021/11/09 01:39:10;;;;;;;14.65;9.27;;;;;;;3.11;100.00;102402.69;10566251;28;20054;-75
2021/11/09 01:44:12;;;;;;;17.58;10.02;;;;;;;3.03;100.00;102393.63;10581794;28;20491;-74
2021/11/09 01:49:14;;;;;;;17.02;10.38;;;;;;;3.08;100.00;102401.59;10567654;28;20047;-74
2021/11/09 01:54:15;;;;;;;18.30;10.45;;;;;;;3.05;100.00;102402.25;10552539;28;20044;-74
2021/11/09 01:59:17;;;;;;;20.35;11.55;;;;;;;3.09;100.00;102398.25;10539433;28;20093;-74
2021/11/09 02:04:19;;;;;;;21.77;11.07;;;;;;;3.05;100.00;102397.16;10542811;28;20165;-74
2021/11/09 02:09:21;;;;;;;21.40;11.65;;;;;;;3.13;100.00;102401.16;10580538;28;20089;-74
2021/11/09 02:14:22;;;;;;;22.23;11.20;;;;;;;3.15;100.00;102403.81;10542927;28;20044;-74
2021/11/09 02:19:24;;;;;;;20.60;12.07;;;;;;;3.24;100.00;102409.56;10542545;28;20090;-75
2021/11/09 02:24:26;;;;;;;31.67;13.10;;;;;;;3.14;100.00;102412.25;10539144;28;20131;-74
2021/11/09 02:29:27;;;;;;;28.95;13.43;;;;;;;3.09;100.00;102409.38;10567713;28;20047;-74
2021/11/09 02:34:29;;;;;;;22.10;12.43;;;;;;;3.08;100.00;102401.59;10565774;28;20052;-74
2021/11/09 02:39:30;;;;;;;19.77;12.55;;;;;;;3.00;100.00;102397.59;10565848;28;20677;-74
2021/11/09 02:44:33;;;;;;;28.38;13.20;;;;;;;3.17;100.00;102397.13;10536819;28;20094;-74
2021/11/09 02:49:52;;;;;;;27.00;13.90;;;;;;;3.18;100.00;102389.56;10535208;28;20056;-74
2021/11/09 02:55:01;;;;;;;24.55;13.48;;;;;;;3.28;100.00;102385.97;10563958;28;20055;-74
2021/11/09 03:10:53;;;;;;;26.58;14.85;;;;;;;3.42;100.00;102385.25;10520587;28;20097;-74
2021/11/09 03:16:00;;;;;;;34.67;15.95;;;;;;;3.42;100.00;102386.94;10544393;28;20097;-74
2021/11/09 03:47:24;;;;;;;26.23;14.75;;;;;;;3.38;100.00;102403.72;10579036;28;20056;-74
2021/11/09 03:52:29;;;;;;;26.60;14.95;;;;;;;3.34;100.00;102406.84;10564768;28;20044;-74
2021/11/09 03:57:39;;;;;;;28.75;15.15;;;;;;;3.33;100.00;102399.06;10576557;28;20491;-74
2021/11/09 04:08:33;;;;;;;37.42;17.92;;;;;;;3.43;100.00;102414.28;10493970;28;20047;-74
2021/11/09 04:13:45;;;;;;;30.83;15.38;;;;;;;3.37;100.00;102414.75;10547995;28;20044;-75
2021/11/09 04:19:03;;;;;;;40.75;15.90;;;;;;;3.33;100.00;102425.53;10560625;28;20063;-74
2021/11/09 04:24:31;;;;;;;33.97;15.68;;;;;;;3.36;100.00;102412.09;10585974;28;20044;-74
2021/11/09 04:40:52;;;;;;;33.65;15.82;;;;;;;3.25;100.00;102429.25;10557175;28;20059;-74
2021/11/09 04:51:28;;;;;;;28.50;14.77;;;;;;;3.22;100.00;102438.34;10555005;28;20114;-74
2021/11/09 05:01:49;;;;;;;29.60;16.20;;;;;;;3.17;100.00;102430.34;10548636;28;20055;-74
2021/11/09 05:12:11;;;;;;;37.15;16.50;;;;;;;3.08;100.00;102435.72;10566484;28;20392;-74
2021/11/09 05:17:13;;;;;;;33.85;17.10;;;;;;;3.07;100.00;102445.84;10551651;28;20052;-75
2021/11/09 05:22:15;;;;;;;33.38;18.20;;;;;;;3.09;100.00;102441.72;10560235;28;20046;-75
2021/11/09 05:27:17;;;;;;;34.33;16.13;;;;;;;3.08;100.00;102445.97;10553703;28;20048;-74
2021/11/09 05:32:19;;;;;;;30.48;16.13;;;;;;;3.02;100.00;102440.41;10554939;28;20060;-74
2021/11/09 05:37:25;;;;;;;37.97;18.10;;;;;;;3.02;100.00;102445.53;10550536;28;20067;-74
2021/11/09 05:42:27;;;;;;;40.25;19.80;;;;;;;3.04;100.00;102455.84;10582628;28;20577;-74
2021/11/09 05:47:28;;;;;;;43.15;17.77;;;;;;;2.96;100.00;102460.44;10583040;28;20054;-74
2021/11/09 05:52:30;;;;;;;31.95;15.70;;;;;;;2.92;100.00;102456.75;10567731;28;20096;-74
2021/11/09 05:57:31;;;;;;;32.05;16.77;;;;;;;2.94;100.00;102456.84;10565840;28;20484;-74
2021/11/09 06:02:33;;;;;;;30.73;17.55;;;;;;;3.00;100.00;102466.63;10553915;28;20373;-74
2021/11/09 06:07:35;;;;;;;38.83;17.00;;;;;;;3.05;100.00;102467.84;10543149;28;20048;-74
2021/11/09 06:12:36;;;;;;;37.58;16.80;;;;;;;3.05;100.00;102478.06;10550444;28;20111;-72
2021/11/09 06:17:38;;;;;;;32.45;18.20;;;;;;;3.00;100.00;102479.41;10553837;28;20056;-74
2021/11/09 06:22:41;;;;;;;31.00;17.70;;;;;;;3.02;100.00;102480.44;10548135;28;20483;-74
2021/11/09 06:27:42;;;;;;;29.88;16.52;;;;;;;3.02;100.00;102476.19;10556776;28;20047;-74
2021/11/09 06:32:44;;;;;;;33.33;18.48;;;;;;;3.02;100.00;102482.97;10579930;28;20051;-74
2021/11/09 06:37:45;;;;;;;36.72;17.15;;;;;;;2.97;100.00;102491.97;10571951;28;20055;-74
2021/11/09 06:42:48;;;;;;;29.08;16.20;;;;;;;2.91;100.00;102488.19;10554180;28;20059;-74
2021/11/09 06:47:51;;;;;;;39.58;18.17;;;;;;;3.02;100.00;102491.53;10532839;28;20056;-74
2021/11/09 06:52:53;;;;;;;43.13;18.65;;;;;;;3.15;100.00;102499.28;10541725;28;20044;-74
2021/11/09 06:57:54;;;;;;;35.70;18.30;;;;;;;3.01;100.00;102511.88;10536409;28;20059;-74
2021/11/09 07:02:56;;;;;;;38.28;18.73;;;;;;;3.08;100.00;102506.41;10552204;28;20096;-74
2021/11/09 07:07:58;;;;;;;42.13;20.10;;;;;;;3.17;100.00;102513.06;10574900;28;20051;-74
2021/11/09 07:12:59;;;;;;;48.40;20.95;;;;;;;3.19;100.00;102511.53;10550230;28;20063;-74
2021/11/09 07:18:01;;;;;;;52.15;21.75;;;;;;;3.30;100.00;102522.53;10531879;28;20059;-74
2021/11/09 07:23:03;;;;;;;39.55;18.88;;;;;;;3.25;100.00;102528.09;10562091;28;20510;-74
2021/11/09 07:28:05;;;;;;;38.65;19.13;;;;;;;3.35;100.00;102544.19;10562970;28;20104;-74
2021/11/09 07:33:07;;;;;;;41.83;22.63;;;;;;;3.36;100.00;102542.53;10577202;28;20518;-74
2021/11/09 07:38:08;;;;;;;44.17;20.40;;;;;;;3.37;100.00;102542.63;10564276;28;20048;-74
2021/11/09 07:43:10;;;;;;;41.67;20.80;;;;;;;3.34;100.00;102541.50;10556211;28;20051;-74
2021/11/09 07:48:12;;;;;;;48.33;21.17;;;;;;;3.34;100.00;102550.06;10567625;28;20048;-74
2021/11/09 07:53:18;;;;;;;47.55;20.35;;;;;;;3.41;100.00;102544.63;10567135;28;20153;-74
2021/11/09 07:58:30;;;;;;;43.35;20.70;;;;;;;3.50;100.00;102546.06;10582289;28;20052;-74
2021/11/09 08:04:02;;;;;;;45.25;20.38;;;;;;;3.57;100.00;102558.50;10572479;28;20051;-74
2021/11/09 08:09:10;;;;;;;43.20;21.23;;;;;;;3.76;100.00;102553.03;10565520;28;20044;-74
2021/11/09 08:14:12;;;;;;;51.17;23.05;;;;;;;3.93;100.00;102555.97;10567263;28;20050;-75
2021/11/09 08:19:15;;;;;;;56.90;23.60;;;;;;;4.06;100.00;102559.38;10574470;28;20058;-74
2021/11/09 08:24:18;;;;;;;56.58;24.98;;;;;;;4.14;100.00;102560.78;10571925;28;20043;-75
2021/11/09 08:29:25;;;;;;;49.15;25.17;;;;;;;4.22;100.00;102563.09;10561424;28;20062;-74
2021/11/09 08:34:30;;;;;;;50.58;22.73;;;;;;;4.39;100.00;102556.53;10554935;28;20092;-74
2021/11/09 08:39:39;;;;;;;50.60;24.67;;;;;;;4.56;100.00;102565.38;10586028;28;20080;-75
2021/11/09 08:44:54;;;;;;;54.55;24.50;;;;;;;4.76;100.00;102558.97;10583535;28;20075;-75
2021/11/09 08:49:55;;;;;;;55.95;27.35;;;;;;;4.67;100.00;102556.72;10560073;28;20108;-75
2021/11/09 08:55:20;;;;;;;52.28;25.58;;;;;;;5.12;100.00;102552.81;10569106;28;20515;-76
2021/11/09 09:05:42;;;;;;;60.47;28.17;;;;;;;5.38;100.00;102551.91;10580528;28;20079;-76
2021/11/09 09:10:44;;;;;;;58.55;30.05;;;;;;;5.38;100.00;102545.88;10576545;28;20101;-75
2021/11/09 09:15:45;;;;;;;65.32;30.42;;;;;;;5.79;100.00;102556.19;10552780;28;20051;-75
2021/11/09 09:20:53;;;;;;;55.08;28.38;;;;;;;5.93;100.00;102544.22;10568010;28;20047;-75
2021/11/09 09:52:09;;;;;;;57.72;29.52;;;;;;;6.60;100.00;102523.44;10561485;28;20055;-76
2021/11/09 09:57:19;;;;;;;53.90;27.23;;;;;;;7.18;100.00;102520.69;10564138;28;20414;-75
2021/11/09 10:02:24;;;;;;;56.53;27.27;;;;;;;7.29;100.00;102522.19;10577357;28;20043;-75
2021/11/09 10:07:32;;;;;;;56.50;26.77;;;;;;;7.27;100.00;102521.22;10544192;28;20048;-75
2021/11/09 10:12:34;;;;;;;;;;;;;;;7.35;100.00;102519.06;10576634;28;20053;-75
2021/11/09 10:17:38;;;;;;;54.28;25.23;;;;;;;7.46;100.00;102520.53;10552999;28;19926;-75
2021/11/09 10:22:41;;;;;;;47.63;24.55;;;;;;;8.09;100.00;102506.72;10562699;28;20215;-75
2021/11/09 10:27:46;;;;;;;42.97;24.92;;;;;;;8.08;100.00;102520.41;10556165;28;20063;-75
2021/11/09 10:32:48;;;;;;;56.22;31.38;;;;;;;8.19;100.00;102523.56;10580220;28;20096;-75
2021/11/09 10:37:52;;;;;;;58.17;32.75;;;;;;;8.43;100.00;102521.38;10572521;28;20048;-75
2021/11/09 10:42:59;;;;;;;60.08;29.50;;;;;;;8.49;100.00;102526.84;10536415;28;20067;-75
2021/11/09 10:48:04;;;;;;;48.92;24.50;;;;;;;8.92;97.76;102523.81;10560424;28;20145;-75
2021/11/09 10:53:21;;;;;;;36.63;22.15;;;;;;;9.81;95.03;102513.34;10568528;28;20048;-75
2021/11/09 10:58:59;;;;;;;30.70;16.88;;;;;;;9.46;92.19;102506.56;10537144;28;20055;-75
2021/11/09 11:09:05;;;;;;;26.67;13.05;;;;;;;10.51;88.79;102510.41;10538012;28;20503;-75
2021/11/09 11:14:29;;;;;;;29.92;14.38;;;;;;;9.83;92.21;102512.63;10579452;28;20101;-75
2021/11/09 11:19:42;;;;;;;25.80;12.98;;;;;;;9.87;91.37;102513.66;10592378;28;20486;-75
2021/11/09 11:24:49;;;;;;;36.55;13.93;;;;;;;9.70;93.09;102505.13;10564323;28;20052;-75
2021/11/09 11:29:51;;;;;;;;;;;;;;;9.70;91.61;102507.72;10568272;28;20056;-75
2021/11/09 11:34:53;;;;;;;25.25;13.00;;;;;;;9.69;92.56;102505.03;10575542;28;20402;-75
2021/11/09 11:39:59;;;;;;;22.23;11.00;;;;;;;9.86;92.85;102498.94;10566448;28;20056;-75
2021/11/09 11:45:02;;;;;;;30.55;12.95;;;;;;;9.86;91.54;102491.16;10563303;28;20051;-78
2021/11/09 11:50:09;;;;;;;22.13;10.40;;;;;;;10.11;89.67;102487.97;10578918;28;20039;-75
2021/11/09 11:55:27;;;;;;;30.27;12.75;;;;;;;10.12;89.35;102488.84;10549737;28;20075;-77
2021/11/09 12:00:43;;;;;;;31.08;12.88;;;;;;;10.23;87.60;102485.03;10566623;28;20052;-78
2021/11/09 12:05:49;;;;;;;32.42;10.70;;;;;;;10.07;88.01;102480.88;10561527;28;20127;-79
2021/11/09 12:10:53;;;;;;;26.80;11.27;;;;;;;10.06;nan;102480.00;10582805;27;20491;-79
2021/11/09 12:16:03;;;;;;;23.17;12.07;;;;;;;10.18;87.49;102487.41;10545524;28;20673;-79
2021/11/09 12:21:34;;;;;;;32.17;11.98;;;;;;;10.34;89.27;102474.34;10543126;28;20075;-78
2021/11/09 12:26:39;;;;;;;26.73;10.38;;;;;;;10.28;89.00;102468.03;10530771;28;20060;-79
2021/11/09 12:31:40;;;;;;;24.55;11.55;;;;;;;10.41;87.17;102462.56;10540626;28;20459;-78
2021/11/09 12:36:42;;;;;;;28.40;12.05;;;;;;;10.32;86.55;102460.47;10551928;28;20054;-78
2021/11/09 12:41:54;;;;;;;26.00;9.48;;;;;;;10.30;86.62;102451.75;10583573;28;20052;-78
2021/11/09 12:47:00;;;;;;;22.90;9.75;;;;;;;10.28;84.38;102449.94;10565563;28;20491;-79
2021/11/09 12:52:02;;;;;;;;;;;;;;;10.32;85.04;102444.03;10556025;28;20060;-79
2021/11/09 12:57:06;;;;;;;19.50;8.43;;;;;;;10.21;84.97;102443.59;10564103;28;19924;-79
2021/11/09 13:02:29;;;;;;;27.85;9.48;;;;;;;10.31;84.93;102432.81;10560180;28;20054;-79
2021/11/09 13:12:35;;;;;;;18.65;8.75;;;;;;;10.40;84.53;102428.88;10558703;27;20415;-79
2021/11/09 13:17:46;;;;;;;21.60;9.43;;;;;;;10.33;82.69;102428.63;10566403;28;20413;-79
2021/11/09 13:22:54;;;;;;;21.52;8.50;;;;;;;10.25;82.52;102421.34;10561402;28;20051;-78
2021/11/09 13:27:56;;;;;;;19.33;9.00;;;;;;;10.24;82.74;102419.56;10554674;28;20048;-78
2021/11/09 13:33:20;;;;;;;24.98;9.98;;;;;;;10.24;82.10;102410.13;10539052;28;20079;-79
2021/11/09 13:38:23;;;;;;;23.25;10.13;;;;;;;10.26;83.73;102413.63;10562039;28;20431;-79
2021/11/09 13:43:37;;;;;;;26.80;9.00;;;;;;;10.31;83.03;102398.31;10581245;28;20051;-79
2021/11/09 13:48:43;;;;;;;25.30;9.80;;;;;;;10.31;84.81;102394.00;10580037;28;20301;-79
2021/11/09 13:53:47;;;;;;;23.27;9.43;;;;;;;10.17;84.34;102396.84;10576050;28;20381;-79
2021/11/09 13:59:01;;;;;;;22.35;9.38;;;;;;;10.16;83.61;102393.38;10543331;28;20140;-79
2021/11/09 14:09:54;;;;;;;16.58;8.88;;;;;;;10.16;84.84;102397.66;10529046;28;20105;-78
2021/11/09 14:20:17;;;;;;;24.77;8.50;;;;;;;10.23;85.08;102404.84;10538289;28;20052;-79
2021/11/09 14:25:25;;;;;;;26.48;9.13;;;;;;;10.11;88.12;102407.81;10540147;28;20055;-79
2021/11/09 14:30:28;;;;;;;21.75;7.63;;;;;;;10.19;82.79;102400.38;10577118;28;20047;-79
2021/11/09 14:35:33;;;;;;;19.90;8.00;;;;;;;10.12;83.87;102396.63;10549645;28;20418;-79
2021/11/09 14:40:43;;;;;;;20.55;8.20;;;;;;;10.06;83.32;102397.28;10537415;28;20044;-78
2021/11/09 14:51:06;;;;;;;17.48;6.97;;;;;;;9.96;83.08;102400.28;10553119;28;20101;-78
2021/11/09 14:56:14;;;;;;;18.35;7.22;;;;;;;10.00;81.82;102406.47;10535170;28;20393;-79
2021/11/09 15:01:28;;;;;;;18.15;8.35;;;;;;;10.01;83.24;102401.34;10547736;28;20096;-78
2021/11/09 15:06:42;;;;;;;24.83;7.72;;;;;;;9.98;82.82;102398.66;10575425;28;20415;-79
2021/11/09 15:11:55;;;;;;;22.20;8.10;;;;;;;9.99;82.24;102405.59;10555279;28;20059;-79
2021/11/09 15:32:59;;;;;;;19.80;7.35;;;;;;;9.65;88.68;102405.84;10538497;28;20048;-79
2021/11/09 15:38:01;;;;;;;19.75;7.40;;;;;;;9.72;86.85;102407.00;10556383;28;20051;-79
2021/11/09 15:43:03;;;;;;;20.48;8.57;;;;;;;9.64;88.43;102395.41;10544300;28;20514;-78
2021/11/09 15:48:05;;;;;;;27.30;9.20;;;;;;;9.61;88.59;102403.94;10548411;28;20044;-79
2021/11/09 15:53:06;;;;;;;20.15;8.98;;;;;;;9.59;88.06;102397.81;10543309;28;20516;-79
2021/11/09 15:58:08;;;;;;;16.80;8.43;;;;;;;9.43;90.13;102391.09;10559885;28;20054;-79
2021/11/09 16:03:10;;;;;;;21.17;8.75;;;;;;;9.54;87.65;102383.81;10543242;28;20075;-79
2021/11/09 16:08:12;;;;;;;17.88;8.60;;;;;;;9.40;90.10;102385.78;10543006;28;20445;-76
2021/11/09 16:13:13;;;;;;;27.00;9.20;;;;;;;9.28;92.03;102386.13;10563259;28;20059;-76
2021/11/09 16:18:15;;;;;;;15.73;8.27;;;;;;;9.27;91.60;102388.63;10551420;28;20044;-76
2021/11/09 16:23:18;;;;;;;18.08;8.70;;;;;;;9.17;92.99;102389.91;10556028;28;20079;-76
2021/11/09 16:28:20;;;;;;;23.38;8.35;;;;;;;9.10;94.10;102387.00;10562889;28;20046;-76
2021/11/09 16:33:30;;;;;;;24.00;10.43;;;;;;;9.04;94.80;102395.34;10568532;28;20180;-77
2021/11/09 16:38:38;;;;;;;25.10;10.10;;;;;;;9.24;92.30;102397.09;10574537;28;20544;-76
2021/11/09 16:43:41;;;;;;;17.83;9.63;;;;;;;9.12;94.26;102411.16;10577695;28;20052;-76
2021/11/09 16:49:14;;;;;;;27.45;13.55;;;;;;;9.13;94.48;102413.84;10567722;28;20054;-76
2021/11/09 16:54:13;;;;;;;18.35;10.65;;;;;;;9.33;91.17;102408.69;10556916;28;20514;-76
2021/11/09 18:24:38;;;;;;;29.35;13.77;;;;;;;8.59;93.55;102479.19;10537903;28;20040;-76
2021/11/09 18:29:40;;;;;;;29.10;13.10;;;;;;;8.55;92.35;102479.84;10575271;28;20044;-75
2021/11/09 18:34:44;;;;;;;31.83;11.30;;;;;;;8.53;92.78;102471.16;10569937;28;20037;-76
2021/11/09 18:39:47;;;;;;;20.27;8.88;;;;;;;8.55;91.25;102462.66;10536452;28;20052;-78
2021/11/09 18:44:49;;;;;;;26.15;11.82;;;;;;;8.44;92.83;102456.97;10548918;28;20071;-78
2021/11/09 18:49:51;;;;;;;23.42;10.13;;;;;;;8.28;95.38;102459.56;10535998;28;20097;-78
2021/11/09 18:54:55;;;;;;;21.83;8.38;;;;;;;8.31;93.78;102464.00;10555146;28;20051;-78
2021/11/09 18:59:59;;;;;;;29.67;9.70;;;;;;;8.08;97.61;102455.97;10558907;28;20039;-78
2021/11/09 19:05:02;;;;;;;25.10;8.60;;;;;;;8.19;95.21;102444.53;10559713;28;20100;-78
2021/11/09 19:10:05;;;;;;;21.85;8.90;;;;;;;8.08;95.70;102449.94;10553248;28;20051;-77
2021/11/09 19:15:10;;;;;;;20.33;8.90;;;;;;;8.01;97.89;102453.91;10556892;28;20047;-78
2021/11/09 19:20:15;;;;;;;19.63;11.77;;;;;;;7.74;100.00;102447.31;10556880;28;20052;-78
2021/11/09 19:25:18;;;;;;;26.80;13.20;;;;;;;7.75;100.00;102444.81;10553365;28;20058;-78
2021/11/09 19:30:23;;;;;;;21.48;14.13;;;;;;;7.60;100.00;102446.59;10553888;28;20047;-77
2021/11/09 19:35:25;;;;;;;34.78;15.65;;;;;;;7.60;100.00;102438.84;10542249;28;20036;-77
2021/11/09 19:40:28;;;;;;;25.52;14.80;;;;;;;7.42;100.00;102436.19;10544796;28;20464;-77
2021/11/09 19:45:31;;;;;;;33.10;14.20;;;;;;;7.32;100.00;102437.41;10543573;28;20052;-77
2021/11/09 19:50:36;;;;;;;19.85;11.18;;;;;;;7.15;100.00;102431.38;10543234;28;20068;-77
2021/11/09 19:55:40;;;;;;;26.75;11.23;;;;;;;6.96;100.00;102425.09;10553309;28;20517;-77
2021/11/09 20:00:47;;;;;;;22.02;8.98;;;;;;;6.96;100.00;102415.69;10567411;28;20518;-77
2021/11/09 20:05:48;;;;;;;19.17;9.52;;;;;;;6.93;100.00;102418.13;10547408;28;20048;-77
2021/11/09 20:10:52;;;;;;;20.08;9.93;;;;;;;6.88;100.00;102415.28;10546729;28;20044;-77
2021/11/09 20:16:01;;;;;;;17.48;9.90;;;;;;;6.80;100.00;102418.22;10542618;28;20050;-77
2021/11/09 20:21:03;;;;;;;17.85;9.57;;;;;;;6.77;100.00;102405.22;10540397;28;20057;-77
2021/11/09 20:26:07;;;;;;;19.40;9.77;;;;;;;6.77;100.00;102405.22;10538271;28;20093;-77
2021/11/09 20:31:10;;;;;;;21.90;9.13;;;;;;;6.73;100.00;102399.00;10537735;28;20058;-77
2021/11/09 20:36:12;;;;;;;23.60;8.25;;;;;;;6.62;100.00;102397.50;10545658;28;20483;-77
2021/11/09 20:41:17;;;;;;;20.02;8.95;;;;;;;6.48;100.00;102390.72;10574104;28;20056;-77
2021/11/09 20:46:19;;;;;;;20.45;9.15;;;;;;;6.47;100.00;102386.41;10540830;28;20040;-77
2021/11/09 20:51:23;;;;;;;20.35;9.40;;;;;;;6.49;100.00;102390.81;10542718;28;20186;-77
2021/11/09 20:56:25;;;;;;;21.20;10.50;;;;;;;6.48;100.00;102399.31;10539525;28;20066;-77
2021/11/09 21:01:27;;;;;;;32.88;17.58;;;;;;;6.54;100.00;102384.25;10539621;28;20052;-77
2021/11/09 21:06:29;;;;;;;40.22;24.05;;;;;;;6.63;100.00;102389.88;10540654;28;20047;-77
2021/11/09 21:11:31;;;;;;;32.42;17.67;;;;;;;6.72;100.00;102396.34;10540832;28;20063;-78
2021/11/09 21:21:54;;;;;;;26.67;12.88;;;;;;;7.06;100.00;102406.81;10540694;28;20052;-78
2021/11/09 21:26:55;;;;;;;27.17;12.98;;;;;;;7.19;100.00;102391.22;10538534;28;20052;-78
2021/11/09 21:37:33;;;;;;;19.80;11.70;;;;;;;7.10;100.00;102401.91;10504998;28;20040;-78
2021/11/09 21:42:36;;;;;;;22.13;11.02;;;;;;;7.13;100.00;102398.59;10538428;28;20056;-78
2021/11/09 21:47:39;;;;;;;21.65;11.25;;;;;;;7.16;100.00;102409.97;10539070;28;20058;-78
2021/11/09 21:52:43;;;;;;;19.10;10.75;;;;;;;7.13;100.00;102419.19;10538743;28;20519;-77
2021/11/09 21:57:45;;;;;;;25.95;11.88;;;;;;;7.15;100.00;102422.75;10537191;28;20062;-78
2021/11/09 22:02:47;;;;;;;27.70;11.55;;;;;;;7.10;100.00;102409.63;10537274;28;20040;-78
2021/11/09 22:07:49;;;;;;;30.17;11.77;;;;;;;7.06;100.00;102412.84;10537028;28;20062;-78
2021/11/09 22:12:51;;;;;;;31.05;15.80;;;;;;;7.00;100.00;102412.50;10548822;28;20051;-77
2021/11/09 22:17:53;;;;;;;20.13;12.95;;;;;;;6.98;100.00;102411.53;10537529;28;20040;-78
2021/11/09 22:22:54;;;;;;;25.08;12.23;;;;;;;6.98;100.00;102414.13;10536418;28;20044;-78
2021/11/09 22:27:56;;;;;;;22.88;12.82;;;;;;;6.97;100.00;102409.75;10537095;28;20044;-78
2021/11/09 22:32:57;;;;;;;25.75;13.88;;;;;;;6.97;100.00;102420.03;10551206;28;20052;-78
2021/11/09 22:37:59;;;;;;;24.70;13.00;;;;;;;6.96;100.00;102413.13;10553303;28;20040;-78
2021/11/09 22:43:00;;;;;;;31.42;13.75;;;;;;;6.98;100.00;102406.41;10555034;28;20048;-77
2021/11/09 22:48:02;;;;;;;30.50;13.30;;;;;;;6.98;100.00;102415.78;10536774;28;20039;-78
2021/11/09 22:53:04;;;;;;;19.58;11.07;;;;;;;6.92;100.00;102406.06;10535314;28;20415;-78
2021/11/09 22:58:05;;;;;;;26.00;12.77;;;;;;;6.91;100.00;102404.28;10535285;28;20064;-78
2021/11/09 23:03:07;;;;;;;26.30;13.57;;;;;;;6.91;100.00;102404.28;10536162;28;20056;-78
2021/11/09 23:08:09;;;;;;;25.48;15.88;;;;;;;6.89;100.00;102395.59;10536641;28;20044;-78
2021/11/09 23:13:10;;;;;;;29.45;15.32;;;;;;;6.87;100.00;102399.78;10546942;28;20052;-78
2021/11/09 23:18:12;;;;;;;25.58;14.23;;;;;;;6.87;100.00;102412.66;10543679;28;20500;-78
2021/11/09 23:23:13;;;;;;;24.40;11.95;;;;;;;6.88;100.00;102417.88;10578387;28;20088;-78
2021/11/09 23:28:15;;;;;;;29.15;12.00;;;;;;;6.87;100.00;102400.66;10576170;28;20051;-78
2021/11/09 23:33:17;;;;;;;24.38;9.88;;;;;;;6.90;100.00;102394.78;10577289;28;20492;-78
2021/11/09 23:38:18;;;;;;;19.85;9.85;;;;;;;6.76;100.00;102393.16;10554514;28;20446;-78
2021/11/09 23:43:20;;;;;;;20.45;9.48;;;;;;;6.56;100.00;102397.19;10534459;28;20052;-78
2021/11/09 23:48:23;;;;;;;26.92;9.35;;;;;;;6.47;100.00;102401.81;10534680;28;20459;-78
2021/11/09 23:53:26;;;;;;;21.30;10.13;;;;;;;6.34;100.00;102397.63;10534297;28;20450;-77
2021/11/09 23:58:28;;;;;;;19.85;8.95;;;;;;;6.19;100.00;102389.97;10536917;28;20074;-78
